createdAt,value
2016-08-03T00:00:03.734Z,0
2016-08-03T00:01:04.470Z,0
2016-08-03T00:02:03.792Z,0
2016-08-03T00:03:04.527Z,0
2016-08-03T00:04:03.860Z,0
2016-08-03T00:05:03.867Z,0
2016-08-03T00:06:03.895Z,0
2016-08-03T00:07:03.924Z,0
2016-08-03T00:08:04.659Z,0
2016-08-03T00:09:04.681Z,0
2016-08-03T00:10:04.015Z,0
2016-08-03T00:11:06.158Z,0
2016-08-03T00:12:04.071Z,0
2016-08-03T00:13:04.085Z,0
2016-08-03T00:14:04.816Z,0
2016-08-03T00:15:04.138Z,0
2016-08-03T00:16:04.877Z,0
2016-08-03T00:17:04.901Z,0
2016-08-03T00:18:04.220Z,0
2016-08-03T00:19:04.966Z,0
2016-08-03T00:20:05.202Z,0
2016-08-03T00:21:05.010Z,0
2016-08-03T00:22:04.326Z,0
2016-08-03T00:23:04.348Z,0
2016-08-03T00:24:04.381Z,0
2016-08-03T00:25:04.419Z,0
2016-08-03T00:26:05.150Z,0
2016-08-03T00:27:04.475Z,0
2016-08-03T00:28:05.237Z,0
2016-08-03T00:29:04.516Z,0
2016-08-03T00:30:04.554Z,0
2016-08-03T00:31:05.279Z,0
2016-08-03T00:32:05.304Z,0
2016-08-03T00:33:04.628Z,0
2016-08-03T00:34:04.651Z,0
2016-08-03T00:35:04.694Z,0
2016-08-03T00:36:05.454Z,0
2016-08-03T00:37:04.748Z,0
2016-08-03T00:38:04.763Z,0
2016-08-03T00:39:04.787Z,0
2016-08-03T00:40:05.524Z,0
2016-08-03T00:41:04.841Z,0
2016-08-03T00:42:05.582Z,0
2016-08-03T00:43:05.604Z,0
2016-08-03T00:44:04.973Z,0
2016-08-03T00:45:04.954Z,0
2016-08-03T00:46:04.977Z,0
2016-08-03T00:47:05.010Z,0
2016-08-03T00:48:05.032Z,0
2016-08-03T00:49:05.061Z,0
2016-08-03T00:50:05.092Z,0
2016-08-03T00:51:05.112Z,0
2016-08-03T00:52:05.162Z,0
2016-08-03T00:53:05.169Z,0
2016-08-03T00:54:05.196Z,0
2016-08-03T00:55:05.227Z,0
2016-08-03T00:56:05.249Z,0
2016-08-03T00:57:05.983Z,0
2016-08-03T00:58:05.306Z,0
2016-08-03T00:59:06.037Z,0
2016-08-03T01:00:05.379Z,0
2016-08-03T01:01:06.143Z,0
2016-08-03T01:02:05.422Z,0
2016-08-03T01:03:05.443Z,0
2016-08-03T01:04:05.478Z,0
2016-08-03T01:05:05.491Z,0
2016-08-03T01:06:05.583Z,0
2016-08-03T01:07:05.558Z,0
2016-08-03T01:08:05.590Z,0
2016-08-03T01:09:05.605Z,0
2016-08-03T01:10:05.628Z,0
2016-08-03T01:11:05.648Z,0
2016-08-03T01:12:05.678Z,0
2016-08-03T01:13:05.708Z,0
2016-08-03T01:14:06.442Z,0
2016-08-03T01:15:05.760Z,0
2016-08-03T01:16:05.810Z,0
2016-08-03T01:17:06.531Z,0
2016-08-03T01:18:05.840Z,0
2016-08-03T01:19:06.579Z,0
2016-08-03T01:20:06.608Z,0
2016-08-03T01:21:05.916Z,0
2016-08-03T01:22:05.944Z,0
2016-08-03T01:23:05.972Z,0
2016-08-03T01:24:06.024Z,0
2016-08-03T01:25:06.049Z,0
2016-08-03T01:26:07.473Z,0
2016-08-03T01:27:06.083Z,0
2016-08-03T01:28:06.121Z,0
2016-08-03T01:29:06.137Z,0
2016-08-03T01:30:06.170Z,0
2016-08-03T01:31:06.189Z,0
2016-08-03T01:32:06.215Z,0
2016-08-03T01:33:06.254Z,0
2016-08-03T01:34:06.981Z,0
2016-08-03T01:35:06.303Z,0
2016-08-03T01:36:07.035Z,0
2016-08-03T01:37:07.080Z,0
2016-08-03T01:38:06.379Z,0
2016-08-03T01:39:06.408Z,0
2016-08-03T01:40:06.441Z,0
2016-08-03T01:41:06.467Z,0
2016-08-03T01:42:07.195Z,0
2016-08-03T01:43:06.519Z,0
2016-08-03T01:44:06.597Z,0
2016-08-03T01:45:06.570Z,0
2016-08-03T01:46:06.599Z,0
2016-08-03T01:47:08.044Z,0
2016-08-03T01:48:07.360Z,0
2016-08-03T01:49:06.684Z,0
2016-08-03T01:50:06.708Z,0
2016-08-03T01:51:06.730Z,0
2016-08-03T01:52:06.761Z,0
2016-08-03T01:53:08.228Z,0
2016-08-03T01:54:06.812Z,0
2016-08-03T01:55:06.840Z,0
2016-08-03T01:56:06.867Z,0
2016-08-03T01:57:07.601Z,0
2016-08-03T01:58:06.924Z,0
2016-08-03T02:00:06.972Z,0
2016-08-03T02:01:07.074Z,0
2016-08-03T02:02:07.048Z,0
2016-08-03T02:03:07.058Z,0
2016-08-03T02:04:07.841Z,0
2016-08-03T02:05:07.819Z,0
2016-08-03T02:06:07.142Z,0
2016-08-03T02:07:07.162Z,0
2016-08-03T02:08:07.910Z,0
2016-08-03T02:09:07.220Z,0
2016-08-03T02:10:07.245Z,0
2016-08-03T02:11:07.982Z,0
2016-08-03T02:12:08.016Z,0
2016-08-03T02:13:07.343Z,0
2016-08-03T02:14:07.361Z,0
2016-08-03T02:15:07.383Z,0
2016-08-03T02:16:07.407Z,0
2016-08-03T02:17:08.144Z,0
2016-08-03T02:18:07.462Z,0
2016-08-03T02:19:08.202Z,0
2016-08-03T02:20:07.515Z,0
2016-08-03T02:21:07.563Z,0
2016-08-03T02:22:07.576Z,0
2016-08-03T02:23:07.597Z,0
2016-08-03T02:24:08.335Z,0
2016-08-03T02:25:07.653Z,0
2016-08-03T02:26:07.684Z,0
2016-08-03T02:27:07.703Z,0
2016-08-03T02:28:07.733Z,0
2016-08-03T02:29:07.772Z,0
2016-08-03T02:30:07.793Z,0
2016-08-03T02:31:08.520Z,0
2016-08-03T02:32:08.545Z,0
2016-08-03T02:33:07.869Z,0
2016-08-03T02:34:07.914Z,0
2016-08-03T02:35:09.344Z,0
2016-08-03T02:36:08.671Z,0
2016-08-03T02:37:07.992Z,0
2016-08-03T02:38:08.710Z,0
2016-08-03T02:39:08.031Z,0
2016-08-03T02:40:08.056Z,0
2016-08-03T02:41:08.084Z,0
2016-08-03T02:42:08.825Z,0
2016-08-03T02:43:08.137Z,0
2016-08-03T02:44:08.168Z,0
2016-08-03T02:45:08.923Z,0
2016-08-03T02:46:08.229Z,0
2016-08-03T02:47:08.953Z,0
2016-08-03T02:48:09.692Z,0
2016-08-03T02:49:08.296Z,0
2016-08-03T02:50:09.036Z,0
2016-08-03T02:51:08.352Z,0
2016-08-03T02:52:09.800Z,0
2016-08-03T02:53:08.419Z,0
2016-08-03T02:54:09.160Z,0
2016-08-03T02:55:08.460Z,0
2016-08-03T02:56:08.489Z,0
2016-08-03T02:57:09.225Z,0
2016-08-03T02:58:08.540Z,0
2016-08-03T02:59:08.568Z,0
2016-08-03T03:00:08.593Z,0
2016-08-03T03:01:09.334Z,0
2016-08-03T03:02:08.660Z,0
2016-08-03T03:03:08.672Z,0
2016-08-03T03:04:08.698Z,0
2016-08-03T03:05:08.729Z,0
2016-08-03T03:06:08.755Z,0
2016-08-03T03:07:08.784Z,0
2016-08-03T03:08:08.822Z,0
2016-08-03T03:09:08.856Z,0
2016-08-03T03:10:08.878Z,0
2016-08-03T03:11:08.887Z,0
2016-08-03T03:12:09.624Z,0
2016-08-03T03:13:08.961Z,0
2016-08-03T03:14:08.970Z,0
2016-08-03T03:15:08.993Z,0
2016-08-03T03:16:09.020Z,0
2016-08-03T03:17:09.048Z,0
2016-08-03T03:18:09.789Z,0
2016-08-03T03:19:09.811Z,0
2016-08-03T03:20:09.131Z,0
2016-08-03T03:21:09.159Z,0
2016-08-03T03:22:09.897Z,0
2016-08-03T03:23:09.209Z,0
2016-08-03T03:24:09.946Z,0
2016-08-03T03:25:09.262Z,0
2016-08-03T03:26:09.288Z,0
2016-08-03T03:27:10.037Z,0
2016-08-03T03:28:10.050Z,0
2016-08-03T03:29:10.080Z,0
2016-08-03T03:30:09.401Z,0
2016-08-03T03:31:09.438Z,0
2016-08-03T03:32:10.160Z,0
2016-08-03T03:33:10.187Z,0
2016-08-03T03:34:10.216Z,0
2016-08-03T03:35:10.252Z,0
2016-08-03T03:36:09.558Z,0
2016-08-03T03:37:09.582Z,0
2016-08-03T03:38:10.329Z,0
2016-08-03T03:39:09.642Z,0
2016-08-03T03:40:10.377Z,0
2016-08-03T03:41:09.692Z,0
2016-08-03T03:42:09.721Z,0
2016-08-03T03:43:09.749Z,0
2016-08-03T03:44:09.772Z,0
2016-08-03T03:45:09.816Z,0
2016-08-03T03:46:09.830Z,0
2016-08-03T03:47:09.853Z,4
2016-08-03T03:48:09.877Z,0
2016-08-03T03:49:09.905Z,0
2016-08-03T03:50:09.932Z,0
2016-08-03T03:51:09.962Z,0
2016-08-03T03:52:09.990Z,0
2016-08-03T03:53:10.016Z,0
2016-08-03T03:54:10.046Z,0
2016-08-03T03:55:10.071Z,4
2016-08-03T03:56:10.812Z,0
2016-08-03T03:57:10.121Z,0
2016-08-03T03:58:10.149Z,0
2016-08-03T03:59:10.884Z,0
2016-08-03T04:00:10.911Z,0
2016-08-03T04:01:11.698Z,4
2016-08-03T04:02:10.969Z,0
2016-08-03T04:03:10.289Z,0
2016-08-03T04:04:11.732Z,4
2016-08-03T04:05:10.341Z,0
2016-08-03T04:06:10.362Z,0
2016-08-03T04:07:11.109Z,4
2016-08-03T04:08:10.422Z,0
2016-08-03T04:09:10.452Z,0
2016-08-03T04:10:10.475Z,4
2016-08-03T04:11:10.501Z,4
2016-08-03T04:12:11.232Z,4
2016-08-03T04:13:10.547Z,4
2016-08-03T04:14:10.574Z,4
2016-08-03T04:15:10.602Z,4
2016-08-03T04:16:11.341Z,4
2016-08-03T04:17:10.659Z,4
2016-08-03T04:18:10.690Z,4
2016-08-03T04:19:10.719Z,8
2016-08-03T04:20:11.465Z,8
2016-08-03T04:21:11.474Z,8
2016-08-03T04:22:10.793Z,8
2016-08-03T04:23:10.826Z,8
2016-08-03T04:24:10.841Z,4
2016-08-03T04:25:10.870Z,8
2016-08-03T04:26:11.619Z,8
2016-08-03T04:27:10.948Z,4
2016-08-03T04:28:10.954Z,4
2016-08-03T04:29:11.691Z,8
2016-08-03T04:30:11.007Z,8
2016-08-03T04:31:11.746Z,8
2016-08-03T04:32:11.060Z,8
2016-08-03T04:33:11.093Z,8
2016-08-03T04:34:11.123Z,4
2016-08-03T04:35:11.134Z,8
2016-08-03T04:36:11.874Z,8
2016-08-03T04:37:11.193Z,8
2016-08-03T04:38:11.942Z,8
2016-08-03T04:39:11.956Z,4
2016-08-03T04:40:11.279Z,8
2016-08-03T04:41:11.301Z,8
2016-08-03T04:42:12.061Z,8
2016-08-03T04:43:11.353Z,8
2016-08-03T04:44:11.379Z,8
2016-08-03T04:45:11.410Z,12
2016-08-03T04:46:11.432Z,8
2016-08-03T04:47:11.483Z,8
2016-08-03T04:48:11.490Z,8
2016-08-03T04:49:11.529Z,12
2016-08-03T04:50:12.281Z,12
2016-08-03T04:51:11.577Z,12
2016-08-03T04:52:12.308Z,12
2016-08-03T04:53:11.627Z,16
2016-08-03T04:54:11.653Z,12
2016-08-03T04:55:12.392Z,16
2016-08-03T04:56:11.705Z,12
2016-08-03T04:57:11.731Z,12
2016-08-03T04:58:11.784Z,16
2016-08-03T04:59:11.811Z,12
2016-08-03T05:00:11.819Z,12
2016-08-03T05:01:11.840Z,16
2016-08-03T05:02:11.869Z,16
2016-08-03T05:03:11.890Z,16
2016-08-03T05:04:13.352Z,12
2016-08-03T05:05:12.655Z,12
2016-08-03T05:06:11.993Z,16
2016-08-03T05:07:12.002Z,12
2016-08-03T05:08:12.028Z,16
2016-08-03T05:09:12.054Z,16
2016-08-03T05:10:12.082Z,16
2016-08-03T05:11:12.105Z,16
2016-08-03T05:12:12.843Z,16
2016-08-03T05:13:12.877Z,16
2016-08-03T05:14:12.198Z,16
2016-08-03T05:15:13.633Z,16
2016-08-03T05:16:12.247Z,16
2016-08-03T05:17:12.978Z,16
2016-08-03T05:18:13.008Z,20
2016-08-03T05:19:12.318Z,16
2016-08-03T05:20:12.347Z,16
2016-08-03T05:21:12.374Z,16
2016-08-03T05:22:13.117Z,20
2016-08-03T05:23:12.439Z,16
2016-08-03T05:24:13.167Z,20
2016-08-03T05:25:12.489Z,16
2016-08-03T05:26:13.219Z,20
2016-08-03T05:27:12.536Z,20
2016-08-03T05:28:13.269Z,16
2016-08-03T05:29:12.593Z,16
2016-08-03T05:30:14.032Z,16
2016-08-03T05:31:13.351Z,20
2016-08-03T05:32:12.670Z,16
2016-08-03T05:33:12.703Z,20
2016-08-03T05:34:13.431Z,20
2016-08-03T05:35:12.750Z,20
2016-08-03T05:36:13.490Z,24
2016-08-03T05:37:12.806Z,24
2016-08-03T05:38:12.834Z,24
2016-08-03T05:39:12.882Z,24
2016-08-03T05:40:12.885Z,20
2016-08-03T05:41:12.924Z,20
2016-08-03T05:42:12.946Z,20
2016-08-03T05:43:13.673Z,24
2016-08-03T05:44:14.417Z,24
2016-08-03T05:45:13.038Z,28
2016-08-03T05:46:13.757Z,28
2016-08-03T05:47:13.820Z,28
2016-08-03T05:48:13.102Z,28
2016-08-03T05:49:13.129Z,28
2016-08-03T05:50:13.153Z,28
2016-08-03T05:51:13.179Z,32
2016-08-03T05:52:13.920Z,32
2016-08-03T05:53:13.951Z,36
2016-08-03T05:54:13.266Z,36
2016-08-03T05:55:13.307Z,36
2016-08-03T05:56:13.317Z,36
2016-08-03T05:57:13.340Z,40
2016-08-03T05:58:13.366Z,40
2016-08-03T05:59:13.396Z,44
2016-08-03T06:01:13.459Z,40
2016-08-03T06:02:14.190Z,40
2016-08-03T06:03:14.254Z,48
2016-08-03T06:04:13.538Z,48
2016-08-03T06:05:14.276Z,40
2016-08-03T06:06:14.294Z,40
2016-08-03T06:07:14.322Z,40
2016-08-03T06:08:13.639Z,44
2016-08-03T06:09:14.398Z,44
2016-08-03T06:10:14.404Z,52
2016-08-03T06:11:13.742Z,52
2016-08-03T06:12:13.750Z,52
2016-08-03T06:13:13.776Z,52
2016-08-03T06:14:14.510Z,52
2016-08-03T06:16:13.859Z,56
2016-08-03T06:17:13.890Z,52
2016-08-03T06:18:13.924Z,52
2016-08-03T06:19:13.958Z,56
2016-08-03T06:20:13.970Z,56
2016-08-03T06:21:13.992Z,60
2016-08-03T06:22:14.020Z,64
2016-08-03T06:23:14.046Z,64
2016-08-03T06:24:14.072Z,64
2016-08-03T06:25:14.103Z,64
2016-08-03T06:26:14.835Z,64
2016-08-03T06:27:14.184Z,64
2016-08-03T06:28:14.187Z,56
2016-08-03T06:29:15.635Z,64
2016-08-03T06:30:14.238Z,60
2016-08-03T06:31:14.976Z,60
2016-08-03T06:32:15.006Z,60
2016-08-03T06:33:14.319Z,64
2016-08-03T06:34:15.135Z,68
2016-08-03T06:35:14.397Z,68
2016-08-03T06:36:14.406Z,68
2016-08-03T06:37:15.151Z,68
2016-08-03T06:38:15.171Z,68
2016-08-03T06:39:14.496Z,72
2016-08-03T06:40:14.512Z,80
2016-08-03T06:41:14.540Z,84
2016-08-03T06:42:14.572Z,88
2016-08-03T06:43:15.339Z,92
2016-08-03T06:44:14.619Z,88
2016-08-03T06:45:14.653Z,84
2016-08-03T06:46:14.686Z,80
2016-08-03T06:47:14.709Z,96
2016-08-03T06:48:16.156Z,100
2016-08-03T06:49:14.786Z,96
2016-08-03T06:50:14.861Z,96
2016-08-03T06:51:14.829Z,84
2016-08-03T06:52:15.557Z,92
2016-08-03T06:53:14.878Z,100
2016-08-03T06:54:14.903Z,112
2016-08-03T06:55:14.937Z,100
2016-08-03T06:56:15.720Z,100
2016-08-03T06:57:15.693Z,112
2016-08-03T06:58:15.028Z,96
2016-08-03T06:59:15.042Z,92
2016-08-03T07:00:15.073Z,88
2016-08-03T07:01:15.104Z,104
2016-08-03T07:02:15.134Z,108
2016-08-03T07:03:15.157Z,104
2016-08-03T07:04:15.186Z,108
2016-08-03T07:05:15.922Z,116
2016-08-03T07:06:15.245Z,108
2016-08-03T07:07:15.989Z,108
2016-08-03T07:08:15.407Z,112
2016-08-03T07:09:15.330Z,112
2016-08-03T07:10:15.351Z,124
2016-08-03T07:11:15.381Z,128
2016-08-03T07:12:15.409Z,148
2016-08-03T07:13:15.437Z,156
2016-08-03T07:14:15.462Z,156
2016-08-03T07:15:16.207Z,156
2016-08-03T07:16:15.523Z,160
2016-08-03T07:17:16.260Z,156
2016-08-03T07:18:15.601Z,160
2016-08-03T07:19:15.608Z,156
2016-08-03T07:20:15.634Z,156
2016-08-03T07:21:15.664Z,156
2016-08-03T07:22:16.412Z,156
2016-08-03T07:23:15.722Z,156
2016-08-03T07:24:17.879Z,148
2016-08-03T07:25:15.798Z,168
2016-08-03T07:26:15.819Z,168
2016-08-03T07:27:15.832Z,164
2016-08-03T07:28:15.866Z,172
2016-08-03T07:29:16.605Z,172
2016-08-03T07:30:16.630Z,176
2016-08-03T07:31:15.959Z,164
2016-08-03T07:32:15.978Z,168
2016-08-03T07:33:16.718Z,164
2016-08-03T07:34:16.759Z,184
2016-08-03T07:35:16.066Z,184
2016-08-03T07:36:16.092Z,180
2016-08-03T07:37:16.120Z,192
2016-08-03T07:38:16.146Z,180
2016-08-03T07:39:16.177Z,176
2016-08-03T07:40:16.219Z,168
2016-08-03T07:41:16.234Z,180
2016-08-03T07:42:16.267Z,144
2016-08-03T07:43:16.297Z,180
2016-08-03T07:44:16.326Z,164
2016-08-03T07:45:16.373Z,188
2016-08-03T07:46:16.392Z,192
2016-08-03T07:47:16.433Z,196
2016-08-03T07:48:16.440Z,200
2016-08-03T07:49:16.473Z,212
2016-08-03T07:50:16.530Z,224
2016-08-03T07:51:16.573Z,200
2016-08-03T07:52:16.560Z,184
2016-08-03T07:53:16.587Z,192
2016-08-03T07:54:16.618Z,192
2016-08-03T07:55:17.356Z,160
2016-08-03T07:56:16.675Z,176
2016-08-03T07:57:16.739Z,200
2016-08-03T07:58:16.745Z,204
2016-08-03T07:59:16.764Z,212
2016-08-03T08:00:17.500Z,244
2016-08-03T08:01:17.528Z,344
2016-08-03T08:02:16.848Z,368
2016-08-03T08:03:16.877Z,636
2016-08-03T08:04:17.625Z,804
2016-08-03T08:05:16.944Z,2512
2016-08-03T08:06:16.967Z,14876
2016-08-03T08:07:16.995Z,24704
2016-08-03T08:08:18.999Z,12484
2016-08-03T08:09:20.666Z,3440
2016-08-03T08:10:17.085Z,2980
2016-08-03T08:11:32.037Z,1968
2016-08-03T08:12:17.142Z,1268
2016-08-03T08:13:17.177Z,1680
2016-08-03T08:14:17.911Z,1736
2016-08-03T08:15:17.955Z,1296
2016-08-03T08:16:17.262Z,2712
2016-08-03T08:17:18.007Z,2008
2016-08-03T08:18:17.329Z,1184
2016-08-03T08:19:17.371Z,620
2016-08-03T08:20:17.383Z,460
2016-08-03T08:21:17.413Z,268
2016-08-03T08:22:18.152Z,276
2016-08-03T08:23:17.490Z,264
2016-08-03T08:24:17.508Z,260
2016-08-03T08:25:17.533Z,276
2016-08-03T08:26:17.564Z,320
2016-08-03T08:27:17.591Z,192
2016-08-03T08:28:18.333Z,180
2016-08-03T08:29:17.675Z,184
2016-08-03T08:30:19.635Z,212
2016-08-03T08:31:21.799Z,248
2016-08-03T08:32:21.821Z,212
2016-08-03T08:33:17.776Z,188
2016-08-03T08:34:17.805Z,180
2016-08-03T08:35:17.834Z,196
2016-08-03T08:36:18.588Z,184
2016-08-03T08:37:17.897Z,200
2016-08-03T08:38:18.632Z,256
2016-08-03T08:39:17.955Z,248
2016-08-03T08:40:17.985Z,236
2016-08-03T08:41:18.012Z,256
2016-08-03T08:42:18.048Z,256
2016-08-03T08:43:18.073Z,260
2016-08-03T08:44:18.820Z,260
2016-08-03T08:45:18.168Z,260
2016-08-03T08:46:18.180Z,260
2016-08-03T08:47:18.908Z,228
2016-08-03T08:48:18.222Z,244
2016-08-03T08:49:18.255Z,248
2016-08-03T08:50:18.286Z,240
2016-08-03T08:51:18.319Z,236
2016-08-03T08:52:18.369Z,216
2016-08-03T08:53:19.090Z,228
2016-08-03T08:54:19.829Z,232
2016-08-03T08:55:18.440Z,280
2016-08-03T08:56:18.469Z,260
2016-08-03T08:57:18.504Z,272
2016-08-03T08:58:18.531Z,276
2016-08-03T08:59:18.571Z,380
2016-08-03T09:00:18.593Z,1808
2016-08-03T09:01:19.400Z,1564
2016-08-03T09:02:18.653Z,576
2016-08-03T09:03:18.712Z,376
2016-08-03T09:04:18.726Z,292
2016-08-03T09:05:18.747Z,284
2016-08-03T09:06:19.486Z,276
2016-08-03T09:07:18.807Z,268
2016-08-03T09:08:18.836Z,264
2016-08-03T09:09:18.869Z,252
2016-08-03T09:10:18.910Z,252
2016-08-03T09:11:18.934Z,240
2016-08-03T09:12:18.974Z,172
2016-08-03T09:13:18.993Z,252
2016-08-03T09:14:19.241Z,252
2016-08-03T09:15:19.064Z,256
2016-08-03T09:16:19.084Z,248
2016-08-03T09:17:19.116Z,244
2016-08-03T09:18:19.869Z,252
2016-08-03T09:19:19.198Z,256
2016-08-03T09:20:19.219Z,268
2016-08-03T09:21:19.244Z,268
2016-08-03T09:22:19.272Z,276
2016-08-03T09:23:19.316Z,312
2016-08-03T09:24:19.335Z,408
2016-08-03T09:25:19.369Z,416
2016-08-03T09:26:19.403Z,208
2016-08-03T09:27:19.437Z,300
2016-08-03T09:28:20.891Z,372
2016-08-03T09:29:19.494Z,68
2016-08-03T09:30:19.521Z,704
2016-08-03T09:31:19.553Z,620
2016-08-03T09:32:19.587Z,608
2016-08-03T09:33:20.333Z,120
2016-08-03T09:34:19.654Z,72
2016-08-03T09:35:19.682Z,252
2016-08-03T09:36:20.424Z,248
2016-08-03T09:37:20.464Z,248
2016-08-03T09:38:19.781Z,244
2016-08-03T09:39:19.810Z,248
2016-08-03T09:40:19.842Z,232
2016-08-03T09:41:21.290Z,84
2016-08-03T09:42:19.937Z,236
2016-08-03T09:43:19.936Z,228
2016-08-03T09:44:19.966Z,212
2016-08-03T09:45:20.023Z,212
2016-08-03T09:46:20.029Z,224
2016-08-03T09:47:20.058Z,236
2016-08-03T09:48:20.807Z,80
2016-08-03T09:49:20.120Z,140
2016-08-03T09:50:20.152Z,236
2016-08-03T09:51:20.204Z,200
2016-08-03T09:52:20.215Z,232
2016-08-03T09:53:20.254Z,224
2016-08-03T09:54:20.286Z,224
2016-08-03T09:55:21.030Z,224
2016-08-03T09:56:21.771Z,236
2016-08-03T09:57:20.378Z,236
2016-08-03T09:58:20.413Z,244
2016-08-03T09:59:21.159Z,72
2016-08-03T10:00:21.182Z,60
2016-08-03T10:01:20.535Z,184
2016-08-03T10:02:20.554Z,224
2016-08-03T10:03:20.575Z,228
2016-08-03T10:04:20.603Z,224
2016-08-03T10:05:20.635Z,220
2016-08-03T10:06:20.671Z,224
2016-08-03T10:07:22.136Z,232
2016-08-03T10:08:21.464Z,120
2016-08-03T10:09:20.761Z,212
2016-08-03T10:10:20.792Z,224
2016-08-03T10:11:21.528Z,160
2016-08-03T10:12:20.853Z,224
2016-08-03T10:13:20.892Z,224
2016-08-03T10:14:21.657Z,208
2016-08-03T10:15:20.948Z,224
2016-08-03T10:17:21.729Z,236
2016-08-03T10:18:21.759Z,224
2016-08-03T10:19:21.080Z,228
2016-08-03T10:20:21.110Z,224
2016-08-03T10:21:21.143Z,228
2016-08-03T10:22:21.883Z,108
2016-08-03T10:23:21.234Z,80
2016-08-03T10:24:21.242Z,116
2016-08-03T10:25:21.295Z,144
2016-08-03T10:26:22.009Z,212
2016-08-03T10:27:21.352Z,156
2016-08-03T10:28:22.087Z,88
2016-08-03T10:29:22.113Z,88
2016-08-03T10:30:21.432Z,80
2016-08-03T10:32:22.202Z,176
2016-08-03T10:33:21.537Z,136
2016-08-03T10:34:22.271Z,220
2016-08-03T10:35:21.591Z,80
2016-08-03T10:36:21.626Z,200
2016-08-03T10:37:22.365Z,208
2016-08-03T10:38:21.703Z,240
2016-08-03T10:39:21.726Z,236
2016-08-03T10:40:21.764Z,244
2016-08-03T10:41:21.784Z,76
2016-08-03T10:42:23.237Z,240
2016-08-03T10:43:21.860Z,236
2016-08-03T10:44:21.882Z,232
2016-08-03T10:45:21.912Z,232
2016-08-03T10:47:21.987Z,216
2016-08-03T10:48:22.742Z,204
2016-08-03T10:49:22.043Z,208
2016-08-03T10:50:22.076Z,212
2016-08-03T10:51:22.823Z,220
2016-08-03T10:52:22.156Z,220
2016-08-03T10:53:22.880Z,220
2016-08-03T10:54:22.912Z,220
2016-08-03T10:55:22.236Z,216
2016-08-03T10:56:22.270Z,216
2016-08-03T10:57:23.014Z,204
2016-08-03T10:58:22.340Z,204
2016-08-03T10:59:22.369Z,200
2016-08-03T11:00:22.411Z,208
2016-08-03T11:02:22.478Z,216
2016-08-03T11:03:23.216Z,220
2016-08-03T11:04:22.532Z,228
2016-08-03T11:05:22.560Z,216
2016-08-03T11:06:22.615Z,232
2016-08-03T11:07:22.631Z,248
2016-08-03T11:08:24.084Z,216
2016-08-03T11:09:23.405Z,172
2016-08-03T11:10:22.727Z,184
2016-08-03T11:11:23.468Z,212
2016-08-03T11:12:22.794Z,220
2016-08-03T11:13:23.535Z,208
2016-08-03T11:14:22.857Z,220
2016-08-03T11:15:22.886Z,212
2016-08-03T11:17:22.959Z,208
2016-08-03T11:18:23.696Z,212
2016-08-03T11:19:23.024Z,204
2016-08-03T11:20:23.055Z,204
2016-08-03T11:21:23.800Z,188
2016-08-03T11:22:23.142Z,204
2016-08-03T11:23:23.154Z,208
2016-08-03T11:24:23.214Z,208
2016-08-03T11:25:23.235Z,208
2016-08-03T11:26:23.257Z,192
2016-08-03T11:27:23.994Z,176
2016-08-03T11:28:23.464Z,184
2016-08-03T11:29:24.059Z,188
2016-08-03T11:30:24.092Z,192
2016-08-03T11:32:23.452Z,188
2016-08-03T11:33:24.193Z,188
2016-08-03T11:34:23.521Z,192
2016-08-03T11:35:24.259Z,196
2016-08-03T11:36:23.590Z,192
2016-08-03T11:37:23.631Z,196
2016-08-03T11:38:23.654Z,184
2016-08-03T11:39:23.682Z,184
2016-08-03T11:40:24.707Z,180
2016-08-03T11:41:23.748Z,176
2016-08-03T11:42:24.494Z,184
2016-08-03T11:43:23.816Z,184
2016-08-03T11:44:24.560Z,172
2016-08-03T11:45:25.306Z,168
2016-08-03T11:47:23.951Z,180
2016-08-03T11:48:24.687Z,180
2016-08-03T11:49:24.726Z,184
2016-08-03T11:50:24.755Z,180
2016-08-03T11:51:24.080Z,180
2016-08-03T11:52:24.112Z,180
2016-08-03T11:53:24.148Z,176
2016-08-03T11:54:24.188Z,172
2016-08-03T11:55:24.224Z,168
2016-08-03T11:56:24.252Z,168
2016-08-03T11:57:24.292Z,160
2016-08-03T11:58:24.328Z,160
2016-08-03T11:59:24.350Z,164
2016-08-03T12:00:25.087Z,164
2016-08-03T12:02:24.442Z,152
2016-08-03T12:03:25.190Z,164
2016-08-03T12:04:25.245Z,168
2016-08-03T12:05:24.547Z,164
2016-08-03T12:06:24.602Z,164
2016-08-03T12:07:24.624Z,160
2016-08-03T12:08:24.644Z,164
2016-08-03T12:09:24.693Z,164
2016-08-03T12:10:25.422Z,160
2016-08-03T12:11:24.746Z,164
2016-08-03T12:12:24.797Z,164
2016-08-03T12:13:24.809Z,164
2016-08-03T12:14:24.844Z,172
2016-08-03T12:15:24.879Z,168
2016-08-03T12:17:24.945Z,168
2016-08-03T12:18:24.974Z,168
2016-08-03T12:19:25.008Z,172
2016-08-03T12:20:25.042Z,168
2016-08-03T12:21:25.291Z,168
2016-08-03T12:22:25.121Z,164
2016-08-03T12:23:25.158Z,168
2016-08-03T12:24:25.890Z,148
2016-08-03T12:25:25.214Z,152
2016-08-03T12:26:25.257Z,148
2016-08-03T12:27:25.285Z,160
2016-08-03T12:28:25.316Z,136
2016-08-03T12:29:25.347Z,136
2016-08-03T12:30:25.397Z,136
2016-08-03T12:32:25.448Z,164
2016-08-03T12:33:25.484Z,160
2016-08-03T12:34:25.518Z,164
2016-08-03T12:35:26.279Z,164
2016-08-03T12:36:25.586Z,156
2016-08-03T12:37:25.621Z,156
2016-08-03T12:38:25.652Z,156
2016-08-03T12:39:25.705Z,156
2016-08-03T12:40:25.720Z,156
2016-08-03T12:41:25.753Z,156
2016-08-03T12:42:25.785Z,152
2016-08-03T12:43:25.822Z,156
2016-08-03T12:44:26.559Z,156
2016-08-03T12:45:26.593Z,160
2016-08-03T12:47:25.952Z,148
2016-08-03T12:48:25.995Z,140
2016-08-03T12:49:26.027Z,152
2016-08-03T12:50:26.056Z,148
2016-08-03T12:51:26.796Z,140
2016-08-03T12:52:26.124Z,164
2016-08-03T12:53:26.164Z,164
2016-08-03T12:54:26.191Z,160
2016-08-03T12:55:26.933Z,160
2016-08-03T12:56:26.264Z,156
2016-08-03T12:57:27.710Z,160
2016-08-03T12:58:26.324Z,148
2016-08-03T12:59:26.353Z,152
2016-08-03T13:00:27.198Z,152
2016-08-03T13:01:26.420Z,132
2016-08-03T13:02:26.460Z,144
2016-08-03T13:03:26.496Z,164
2016-08-03T13:04:26.518Z,164
2016-08-03T13:05:26.579Z,164
2016-08-03T13:06:26.599Z,160
2016-08-03T13:07:26.620Z,148
2016-08-03T13:08:26.655Z,148
2016-08-03T13:09:27.400Z,156
2016-08-03T13:10:26.726Z,156
2016-08-03T13:11:26.779Z,156
2016-08-03T13:12:27.519Z,156
2016-08-03T13:13:26.827Z,112
2016-08-03T13:14:27.571Z,68
2016-08-03T13:15:26.909Z,156
2016-08-03T13:16:26.940Z,136
2016-08-03T13:17:27.668Z,156
2016-08-03T13:18:26.999Z,88
2016-08-03T13:19:27.739Z,120
2016-08-03T13:20:27.086Z,116
2016-08-03T13:21:27.825Z,92
2016-08-03T13:22:27.134Z,56
2016-08-03T13:23:27.883Z,80
2016-08-03T13:24:27.199Z,88
2016-08-03T13:25:27.959Z,100
2016-08-03T13:26:27.269Z,140
2016-08-03T13:27:27.319Z,128
2016-08-03T13:28:27.339Z,136
2016-08-03T13:29:27.665Z,120
2016-08-03T13:30:28.822Z,112
2016-08-03T13:31:28.429Z,128
2016-08-03T13:32:28.893Z,108
2016-08-03T13:33:28.492Z,84
2016-08-03T13:34:28.418Z,132
2016-08-03T13:35:28.291Z,120
2016-08-03T13:36:28.453Z,152
2016-08-03T13:37:28.412Z,160
2016-08-03T13:38:28.433Z,164
2016-08-03T13:39:28.420Z,156
2016-08-03T13:40:27.739Z,136
2016-08-03T13:41:27.772Z,140
2016-08-03T13:42:27.806Z,152
2016-08-03T13:43:27.841Z,160
2016-08-03T13:44:27.887Z,160
2016-08-03T13:45:28.627Z,152
2016-08-03T13:46:27.959Z,144
2016-08-03T13:47:27.983Z,140
2016-08-03T13:48:28.013Z,132
2016-08-03T13:49:28.039Z,132
2016-08-03T13:50:28.074Z,140
2016-08-03T13:51:28.813Z,136
2016-08-03T13:52:28.142Z,132
2016-08-03T13:53:28.178Z,152
2016-08-03T13:54:28.211Z,144
2016-08-03T13:55:28.266Z,156
2016-08-03T13:56:28.992Z,140
2016-08-03T13:57:28.315Z,84
2016-08-03T13:58:28.354Z,84
2016-08-03T13:59:29.092Z,84
2016-08-03T14:00:29.123Z,88
2016-08-03T14:01:28.500Z,84
2016-08-03T14:02:28.492Z,88
2016-08-03T14:03:28.517Z,104
2016-08-03T14:04:28.555Z,116
2016-08-03T14:05:29.303Z,124
2016-08-03T14:06:29.327Z,140
2016-08-03T14:07:28.649Z,116
2016-08-03T14:08:28.687Z,152
2016-08-03T14:09:28.725Z,152
2016-08-03T14:10:28.752Z,152
2016-08-03T14:11:28.791Z,140
2016-08-03T14:12:28.833Z,116
2016-08-03T14:13:28.864Z,120
2016-08-03T14:14:28.901Z,100
2016-08-03T14:15:28.925Z,104
2016-08-03T14:16:28.960Z,128
2016-08-03T14:17:28.991Z,144
2016-08-03T14:18:29.034Z,108
2016-08-03T14:19:29.066Z,108
2016-08-03T14:20:29.093Z,108
2016-08-03T14:21:29.140Z,92
2016-08-03T14:22:29.872Z,92
2016-08-03T14:23:29.201Z,84
2016-08-03T14:24:29.235Z,84